createdAt,value
2017-07-11T00:02:32.439Z,30.1
2017-07-11T00:03:34.632Z,30.1
2017-07-11T00:04:36.375Z,30.1
2017-07-11T00:05:38.515Z,30.1
2017-07-11T00:06:40.319Z,30.1
2017-07-11T00:07:42.118Z,30.1
2017-07-11T00:08:43.563Z,30.1
2017-07-11T00:09:45.390Z,30.1
2017-07-11T00:10:47.192Z,30.1
2017-07-11T00:11:48.993Z,30.1
2017-07-11T00:12:50.793Z,30.1
2017-07-11T00:13:52.930Z,30.1
2017-07-11T00:14:54.708Z,30.1
2017-07-11T00:15:56.151Z,30.1
2017-07-11T00:16:57.951Z,30.1
2017-07-11T00:17:59.804Z,30.1
2017-07-11T00:19:01.608Z,30.1
2017-07-11T00:20:03.408Z,30.1
2017-07-11T00:21:05.546Z,30.1
2017-07-11T00:22:07.342Z,30.1
2017-07-11T00:23:09.525Z,30.1
2017-07-11T00:24:10.968Z,30.1
2017-07-11T00:25:11.741Z,30.1
2017-07-11T00:26:13.210Z,30.1
2017-07-11T00:27:15.005Z,30.1
2017-07-11T00:28:16.450Z,30.1
2017-07-11T00:29:18.256Z,30
2017-07-11T00:30:20.057Z,30.1
2017-07-11T00:31:22.190Z,30.1
2017-07-11T00:32:23.990Z,30
2017-07-11T00:33:25.791Z,30.1
2017-07-11T00:34:27.973Z,30
2017-07-11T00:35:29.776Z,30
2017-07-11T00:36:31.218Z,30
2017-07-11T00:37:32.331Z,30
2017-07-11T00:38:34.474Z,30
2017-07-11T00:39:35.932Z,30
2017-07-11T00:40:37.733Z,30
2017-07-11T00:41:39.200Z,30
2017-07-11T00:42:40.998Z,30.1
2017-07-11T00:43:42.467Z,30
2017-07-11T00:44:43.933Z,30.1
2017-07-11T00:45:45.043Z,30
2017-07-11T00:46:46.550Z,30.1
2017-07-11T00:47:48.356Z,29.9
2017-07-11T00:48:50.486Z,30.1
2017-07-11T00:49:52.289Z,30
2017-07-11T00:50:54.426Z,30.1
2017-07-11T00:51:56.210Z,30
2017-07-11T00:52:58.389Z,30
2017-07-11T00:54:00.526Z,30.1
2017-07-11T00:55:02.325Z,30
2017-07-11T00:56:04.125Z,30
2017-07-11T00:57:05.569Z,30
2017-07-11T00:58:07.392Z,30
2017-07-11T00:59:09.529Z,30
2017-07-11T01:00:11.332Z,30
2017-07-11T01:01:13.130Z,30.1
2017-07-11T01:02:14.928Z,30
2017-07-11T01:03:16.704Z,30
2017-07-11T01:04:18.841Z,30
2017-07-11T01:05:20.644Z,30
2017-07-11T01:06:22.084Z,30
2017-07-11T01:07:23.885Z,30
2017-07-11T01:08:25.686Z,30.1
2017-07-11T01:09:27.132Z,30
2017-07-11T01:10:29.268Z,29.9
2017-07-11T01:11:31.069Z,30
2017-07-11T01:12:33.206Z,30
2017-07-11T01:13:34.685Z,30
2017-07-11T01:14:36.821Z,30
2017-07-11T01:15:38.958Z,29.9
2017-07-11T01:16:40.759Z,30
2017-07-11T01:17:42.225Z,30
2017-07-11T01:18:44.360Z,30
2017-07-11T01:19:46.162Z,29.9
2017-07-11T01:20:47.606Z,30
2017-07-11T01:21:49.743Z,30
2017-07-11T01:22:51.523Z,29.9
2017-07-11T01:23:53.303Z,30
2017-07-11T01:24:55.082Z,30
2017-07-11T01:25:57.217Z,30
2017-07-11T01:26:59.018Z,30
2017-07-11T01:28:00.461Z,29.9
2017-07-11T01:29:02.275Z,29.9
2017-07-11T01:30:04.075Z,30
2017-07-11T01:31:06.211Z,29.9
2017-07-11T01:32:07.674Z,30
2017-07-11T01:33:09.457Z,29.9
2017-07-11T01:34:11.596Z,29.9
2017-07-11T01:35:13.396Z,29.9
2017-07-11T01:36:15.574Z,30
2017-07-11T01:37:17.020Z,29.9
2017-07-11T01:38:18.490Z,30
2017-07-11T01:39:20.290Z,29.9
2017-07-11T01:40:22.092Z,30
2017-07-11T01:41:24.228Z,29.9
2017-07-11T01:42:26.029Z,29.9
2017-07-11T01:43:27.810Z,29.9
2017-07-11T01:44:29.278Z,29.9
2017-07-11T01:45:31.078Z,30
2017-07-11T01:46:33.213Z,29.9
2017-07-11T01:47:34.659Z,30
2017-07-11T01:48:36.459Z,29.9
2017-07-11T01:49:38.594Z,30
2017-07-11T01:50:40.439Z,29.9
2017-07-11T01:51:42.561Z,29.9
2017-07-11T01:52:44.361Z,30
2017-07-11T01:53:46.203Z,30
2017-07-11T01:54:48.015Z,30
2017-07-11T01:55:49.816Z,29.9
2017-07-11T01:56:51.618Z,30
2017-07-11T01:57:53.447Z,29.9
2017-07-11T01:58:55.583Z,30
2017-07-11T01:59:57.384Z,29.9
2017-07-11T02:00:58.852Z,30
2017-07-11T02:02:00.654Z,29.9
2017-07-11T02:03:02.455Z,29.9
2017-07-11T02:04:04.257Z,30
2017-07-11T02:05:06.056Z,30
2017-07-11T02:06:08.192Z,30
2017-07-11T02:07:09.992Z,30
2017-07-11T02:08:11.105Z,30
2017-07-11T02:09:13.244Z,29.9
2017-07-11T02:10:14.691Z,30
2017-07-11T02:11:16.825Z,29.9
2017-07-11T02:12:18.965Z,30
2017-07-11T02:13:20.409Z,29.9
2017-07-11T02:14:22.545Z,30
2017-07-11T02:15:24.679Z,29.9
2017-07-11T02:16:26.481Z,30
2017-07-11T02:17:28.620Z,29.9
2017-07-11T02:18:30.755Z,29.9
2017-07-11T02:19:32.209Z,29.9
2017-07-11T02:20:34.345Z,30
2017-07-11T02:21:36.481Z,29.9
2017-07-11T02:22:38.290Z,29.9
2017-07-11T02:23:40.093Z,29.9
2017-07-11T02:24:42.228Z,29.9
2017-07-11T02:25:44.008Z,29.9
2017-07-11T02:26:45.809Z,29.9
2017-07-11T02:27:47.944Z,30
2017-07-11T02:28:49.747Z,29.9
2017-07-11T02:29:51.189Z,30
2017-07-11T02:30:53.325Z,29.9
2017-07-11T02:31:54.791Z,29.9
2017-07-11T02:32:56.927Z,29.9
2017-07-11T02:33:58.402Z,29.9
2017-07-11T02:35:00.181Z,30
2017-07-11T02:36:01.624Z,29.9
2017-07-11T02:37:03.406Z,30
2017-07-11T02:38:05.538Z,29.9
2017-07-11T02:39:07.340Z,30
2017-07-11T02:40:08.805Z,30
2017-07-11T02:41:10.607Z,30
2017-07-11T02:42:12.742Z,29.9
2017-07-11T02:43:14.226Z,29.9
2017-07-11T02:44:16.004Z,29.9
2017-07-11T02:45:17.823Z,29.9
2017-07-11T02:46:19.269Z,29.9
2017-07-11T02:47:21.070Z,29.9
2017-07-11T02:48:22.240Z,29.9
2017-07-11T02:49:24.022Z,29.9
2017-07-11T02:50:26.183Z,29.9
2017-07-11T02:51:28.319Z,29.9
2017-07-11T02:52:30.455Z,29.9
2017-07-11T02:53:32.255Z,30
2017-07-11T02:54:34.035Z,29.9
2017-07-11T02:55:35.502Z,30
2017-07-11T02:56:37.638Z,29.9
2017-07-11T02:57:39.439Z,30
2017-07-11T02:58:40.884Z,29.9
2017-07-11T02:59:42.683Z,30
2017-07-11T03:00:44.154Z,29.9
2017-07-11T03:01:46.288Z,29.9
2017-07-11T03:02:47.755Z,29.9
2017-07-11T03:03:48.890Z,29.9
2017-07-11T03:04:50.694Z,29.9
2017-07-11T03:05:52.829Z,30
2017-07-11T03:06:54.973Z,29.9
2017-07-11T03:07:56.773Z,29.9
2017-07-11T03:08:58.908Z,29.9
2017-07-11T03:10:01.046Z,29.9
2017-07-11T03:11:02.846Z,29.9
2017-07-11T03:12:04.981Z,29.9
2017-07-11T03:13:07.157Z,29.9
2017-07-11T03:14:08.957Z,29.9
2017-07-11T03:15:10.808Z,29.9
2017-07-11T03:16:12.249Z,29.9
2017-07-11T03:17:13.695Z,30
2017-07-11T03:18:15.477Z,29.9
2017-07-11T03:19:17.278Z,29.9
2017-07-11T03:20:18.720Z,29.9
2017-07-11T03:21:20.859Z,29.9
2017-07-11T03:22:22.640Z,29.9
2017-07-11T03:23:24.443Z,29.9
2017-07-11T03:24:26.577Z,29.8
2017-07-11T03:25:28.714Z,29.8
2017-07-11T03:26:30.159Z,29.9
2017-07-11T03:27:31.960Z,29.9
2017-07-11T03:28:33.402Z,29.9
2017-07-11T03:29:35.538Z,29.9
2017-07-11T03:30:37.338Z,29.9
2017-07-11T03:31:38.117Z,29.9
2017-07-11T03:32:40.254Z,29.9
2017-07-11T03:33:42.392Z,29.8
2017-07-11T03:34:44.193Z,29.9
2017-07-11T03:35:45.303Z,29.8
2017-07-11T03:36:46.751Z,29.9
2017-07-11T03:37:48.892Z,29.9
2017-07-11T03:38:50.364Z,29.9
2017-07-11T03:39:51.814Z,29.8
2017-07-11T03:40:53.946Z,29.9
2017-07-11T03:41:55.727Z,29.9
2017-07-11T03:42:57.507Z,29.8
2017-07-11T03:43:59.656Z,29.8
2017-07-11T03:45:00.785Z,29.9
2017-07-11T03:46:02.227Z,29.8
2017-07-11T03:47:04.364Z,29.8
2017-07-11T03:48:06.500Z,29.9
2017-07-11T03:49:08.303Z,29.8
2017-07-11T03:50:10.102Z,29.9
2017-07-11T03:51:11.944Z,29.8
2017-07-11T03:52:14.083Z,29.8
2017-07-11T03:53:15.550Z,29.9
2017-07-11T03:54:17.686Z,29.9
2017-07-11T03:55:19.483Z,29.8
2017-07-11T03:56:21.625Z,29.8
2017-07-11T03:57:22.729Z,29.8
2017-07-11T03:58:24.199Z,29.9
2017-07-11T03:59:26.003Z,29.9
2017-07-11T04:00:27.806Z,29.9
2017-07-11T04:01:29.948Z,29.9
2017-07-11T04:02:31.057Z,29.8
2017-07-11T04:03:32.863Z,29.8
2017-07-11T04:04:34.663Z,29.8
2017-07-11T04:05:36.468Z,29.9
2017-07-11T04:06:38.268Z,29.9
2017-07-11T04:07:40.074Z,29.9
2017-07-11T04:08:41.875Z,29.8
2017-07-11T04:09:44.016Z,29.9
2017-07-11T04:10:45.463Z,29.9
2017-07-11T04:11:47.600Z,29.9
2017-07-11T04:12:49.736Z,29.9
2017-07-11T04:13:51.537Z,29.9
2017-07-11T04:14:53.676Z,29.8
2017-07-11T04:15:55.121Z,29.9
2017-07-11T04:16:56.919Z,29.9
2017-07-11T04:17:58.384Z,29.8
2017-07-11T04:19:00.523Z,30
2017-07-11T04:20:01.969Z,29.9
2017-07-11T04:21:03.100Z,29.9
2017-07-11T04:22:04.906Z,29.9
2017-07-11T04:23:06.354Z,29.9
2017-07-11T04:24:07.825Z,29.9
2017-07-11T04:25:08.937Z,29.9
2017-07-11T04:26:10.115Z,29.9
2017-07-11T04:27:11.901Z,29.9
2017-07-11T04:28:13.679Z,29.9
2017-07-11T04:29:15.131Z,29.9
2017-07-11T04:30:16.595Z,29.9
2017-07-11T04:31:18.730Z,29.9
2017-07-11T04:32:20.530Z,29.9
2017-07-11T04:33:22.335Z,29.9
2017-07-11T04:34:23.780Z,29.9
2017-07-11T04:35:25.917Z,29.9
2017-07-11T04:36:27.701Z,29.9
2017-07-11T04:37:29.551Z,29.9
2017-07-11T04:38:31.327Z,29.9
2017-07-11T04:39:32.798Z,29.8
2017-07-11T04:40:34.930Z,29.9
2017-07-11T04:41:36.403Z,29.9
2017-07-11T04:42:38.256Z,29.9
2017-07-11T04:43:40.059Z,29.9
2017-07-11T04:44:42.194Z,29.9
2017-07-11T04:45:43.996Z,29.8
2017-07-11T04:46:45.794Z,29.9
2017-07-11T04:47:48.034Z,29.9
2017-07-11T04:48:49.814Z,29.9
2017-07-11T04:49:51.283Z,29.9
2017-07-11T04:50:53.421Z,29.9
2017-07-11T04:51:55.217Z,29.9
2017-07-11T04:52:57.021Z,29.8
2017-07-11T04:53:59.163Z,29.8
2017-07-11T04:55:00.607Z,29.9
2017-07-11T04:56:02.387Z,29.9
2017-07-11T04:57:04.536Z,29.8
2017-07-11T04:58:06.675Z,29.8
2017-07-11T04:59:08.825Z,29.9
2017-07-11T05:00:10.963Z,29.8
2017-07-11T05:01:13.099Z,29.9
2017-07-11T05:02:14.567Z,29.9
2017-07-11T05:03:16.708Z,29.9
2017-07-11T05:04:18.511Z,29.8
2017-07-11T05:05:19.977Z,29.9
2017-07-11T05:06:21.777Z,29.8
2017-07-11T05:07:23.242Z,29.9
2017-07-11T05:08:25.046Z,29.8
2017-07-11T05:09:26.846Z,29.8
2017-07-11T05:10:28.984Z,29.8
2017-07-11T05:11:31.117Z,29.8
2017-07-11T05:12:32.920Z,29.9
2017-07-11T05:13:34.028Z,29.9
2017-07-11T05:14:35.809Z,29.9
2017-07-11T05:15:37.589Z,29.9
2017-07-11T05:16:39.392Z,29.9
2017-07-11T05:17:41.527Z,29.9
2017-07-11T05:18:43.314Z,29.8
2017-07-11T05:19:44.761Z,29.8
2017-07-11T05:20:46.562Z,29.8
2017-07-11T05:21:48.339Z,29.8
2017-07-11T05:22:50.141Z,29.8
2017-07-11T05:23:51.942Z,29.8
2017-07-11T05:24:53.746Z,29.9
2017-07-11T05:25:55.924Z,29.9
2017-07-11T05:26:57.727Z,29.8
2017-07-11T05:27:59.528Z,29.4
2017-07-11T05:29:01.763Z,29.2
2017-07-11T05:30:03.562Z,29
2017-07-11T05:31:05.366Z,29
2017-07-11T05:32:06.497Z,28.7
2017-07-11T05:33:08.276Z,28.7
2017-07-11T05:34:09.721Z,28.6
2017-07-11T05:35:11.524Z,28.5
2017-07-11T05:36:12.988Z,28.5
2017-07-11T05:37:15.125Z,28.4
2017-07-11T05:38:16.590Z,28.6
2017-07-11T05:39:18.035Z,28.4
2017-07-11T05:40:19.833Z,28.5
2017-07-11T05:41:20.943Z,28.4
2017-07-11T05:42:23.077Z,28.5
2017-07-11T05:43:24.525Z,28.5
2017-07-11T05:44:25.992Z,28.5
2017-07-11T05:45:28.125Z,28.4
2017-07-11T05:46:28.901Z,28.4
2017-07-11T05:47:30.364Z,28.4
2017-07-11T05:48:31.832Z,28.4
2017-07-11T05:49:33.966Z,28.1
2017-07-11T05:50:35.764Z,27.7
2017-07-11T05:51:37.231Z,27.9
2017-07-11T05:52:39.034Z,28
2017-07-11T05:53:40.483Z,28.1
2017-07-11T05:54:41.692Z,28.1
2017-07-11T05:55:43.834Z,28.1
2017-07-11T05:56:45.972Z,28.1
2017-07-11T05:57:48.108Z,28.1
2017-07-11T05:58:50.245Z,27.9
2017-07-11T05:59:51.710Z,27.9
2017-07-11T06:00:53.849Z,27.9
2017-07-11T06:01:55.296Z,27.9
2017-07-11T06:02:57.098Z,27.9
2017-07-11T06:03:58.898Z,28
2017-07-11T06:05:00.703Z,27.9
2017-07-11T06:06:02.481Z,27.9
2017-07-11T06:07:03.950Z,28
2017-07-11T06:08:05.418Z,28
2017-07-11T06:09:07.219Z,28
2017-07-11T06:10:09.017Z,28
2017-07-11T06:11:10.801Z,28
2017-07-11T06:12:12.603Z,28
2017-07-11T06:13:14.735Z,28.1
2017-07-11T06:14:16.870Z,28.2
2017-07-11T06:15:18.721Z,28.2
2017-07-11T06:16:19.832Z,28.3
2017-07-11T06:17:21.295Z,28.3
2017-07-11T06:18:22.744Z,28.3
2017-07-11T06:19:24.529Z,28.3
2017-07-11T06:20:26.665Z,28.3
2017-07-11T06:21:28.472Z,28.4
2017-07-11T06:22:29.918Z,28.4
2017-07-11T06:23:31.032Z,28.3
2017-07-11T06:24:32.834Z,28.4
2017-07-11T06:25:34.634Z,28.3
2017-07-11T06:26:36.771Z,28.4
2017-07-11T06:27:38.908Z,28.3
2017-07-11T06:28:40.375Z,28.4
2017-07-11T06:29:41.817Z,28.3
2017-07-11T06:30:43.596Z,28.4
2017-07-11T06:31:44.710Z,28.5
2017-07-11T06:32:46.514Z,28.5
2017-07-11T06:33:47.980Z,28.5
2017-07-11T06:34:50.115Z,28.6
2017-07-11T06:35:51.898Z,28.6
2017-07-11T06:36:53.703Z,28.8
2017-07-11T06:37:55.509Z,28.8
2017-07-11T06:38:57.648Z,28.8
2017-07-11T06:39:59.788Z,28.8
2017-07-11T06:41:01.234Z,28.8
2017-07-11T06:42:03.013Z,28.8
2017-07-11T06:43:04.817Z,28.8
2017-07-11T06:44:06.616Z,28.9
2017-07-11T06:45:08.068Z,29
2017-07-11T06:46:09.873Z,29
2017-07-11T06:47:11.674Z,29
2017-07-11T06:48:13.479Z,29
2017-07-11T06:49:15.278Z,29.1
2017-07-11T06:50:17.415Z,29
2017-07-11T06:51:19.557Z,29.1
2017-07-11T06:52:21.006Z,29.1
2017-07-11T06:53:23.143Z,29.1
2017-07-11T06:54:25.280Z,29.1
2017-07-11T06:55:27.087Z,29.1
2017-07-11T06:56:28.556Z,29.2
2017-07-11T06:57:30.361Z,29.2
2017-07-11T06:58:32.143Z,29.3
2017-07-11T06:59:33.947Z,29.3
2017-07-11T07:00:35.831Z,29.2
2017-07-11T07:01:37.975Z,29.2
2017-07-11T07:02:40.110Z,29.3
2017-07-11T07:03:42.247Z,29.3
2017-07-11T07:04:44.052Z,29.3
2017-07-11T07:05:45.929Z,29.3
2017-07-11T07:06:47.730Z,29.4
2017-07-11T07:07:49.868Z,29.3
2017-07-11T07:08:51.336Z,29.3
2017-07-11T07:09:52.441Z,29.3
2017-07-11T07:10:53.569Z,29.3
2017-07-11T07:11:55.381Z,29.3
2017-07-11T07:12:57.178Z,29.3
2017-07-11T07:13:59.315Z,29.3
2017-07-11T07:15:00.446Z,29.3
2017-07-11T07:16:01.916Z,29.4
2017-07-11T07:17:03.716Z,29.4
2017-07-11T07:18:05.185Z,29.4
2017-07-11T07:19:06.990Z,29.4
2017-07-11T07:20:08.790Z,29.3
2017-07-11T07:21:10.574Z,29.4
2017-07-11T07:22:12.376Z,29.4
2017-07-11T07:23:14.181Z,29.4
2017-07-11T07:24:16.318Z,29.5
2017-07-11T07:25:18.455Z,29.5
2017-07-11T07:26:20.008Z,29.5
2017-07-11T07:27:21.811Z,29.6
2017-07-11T07:28:23.646Z,29.5
2017-07-11T07:29:25.784Z,29.5
2017-07-11T07:30:27.582Z,29.6
2017-07-11T07:31:29.059Z,29.6
2017-07-11T07:32:29.835Z,29.6
2017-07-11T07:33:31.616Z,29.7
2017-07-11T07:34:33.418Z,29.7
2017-07-11T07:35:34.530Z,29.6
2017-07-11T07:36:36.332Z,29.7
2017-07-11T07:37:37.445Z,29.7
2017-07-11T07:38:39.581Z,29.8
2017-07-11T07:39:41.383Z,29.7
2017-07-11T07:40:42.851Z,29.7
2017-07-11T07:41:44.990Z,29.8
2017-07-11T07:42:46.467Z,29.7
2017-07-11T07:43:47.913Z,29.8
2017-07-11T07:44:50.054Z,29.8
2017-07-11T07:45:51.856Z,29.8
2017-07-11T07:46:53.993Z,29.7
2017-07-11T07:47:55.440Z,29.8
2017-07-11T07:48:56.909Z,29.7
2017-07-11T07:49:59.051Z,29.8
2017-07-11T07:51:00.825Z,29.7
2017-07-11T07:52:02.963Z,29.7
2017-07-11T07:53:04.807Z,29.7
2017-07-11T07:54:06.944Z,29.7
2017-07-11T07:55:08.052Z,29.8
2017-07-11T07:56:09.839Z,29.9
2017-07-11T07:57:11.971Z,29.8
2017-07-11T07:58:13.083Z,29.9
2017-07-11T07:59:14.859Z,29.8
2017-07-11T08:00:16.997Z,29.9
2017-07-11T08:01:18.467Z,29.9
2017-07-11T08:02:20.610Z,29.9
2017-07-11T08:03:21.722Z,29.9
2017-07-11T08:04:23.857Z,29.9
2017-07-11T08:05:25.324Z,29.9
2017-07-11T08:06:27.130Z,29.9
2017-07-11T08:07:28.240Z,30
2017-07-11T08:08:29.709Z,29.9
2017-07-11T08:09:31.493Z,30
2017-07-11T08:10:33.625Z,29.9
2017-07-11T08:11:35.070Z,29.9
2017-07-11T08:12:36.537Z,30
2017-07-11T08:13:38.675Z,30
2017-07-11T08:14:40.814Z,29.9
2017-07-11T08:15:42.261Z,30
2017-07-11T08:16:43.726Z,30
2017-07-11T08:17:44.839Z,30
2017-07-11T08:18:46.979Z,30
2017-07-11T08:19:49.113Z,30
2017-07-11T08:20:50.248Z,30
2017-07-11T08:21:52.053Z,29.9
2017-07-11T08:22:54.244Z,29.9
2017-07-11T08:23:55.685Z,29.9
2017-07-11T08:24:57.823Z,30
2017-07-11T08:25:59.599Z,30
2017-07-11T08:27:01.403Z,30.1
2017-07-11T08:28:02.876Z,30
2017-07-11T08:29:05.021Z,30.1
2017-07-11T08:30:06.467Z,30
2017-07-11T08:31:08.605Z,30.1
2017-07-11T08:32:10.405Z,30.1
2017-07-11T08:33:12.208Z,30.1
2017-07-11T08:34:14.010Z,30.1
2017-07-11T08:35:15.814Z,30.2
2017-07-11T08:36:16.950Z,30.2
2017-07-11T08:37:18.422Z,30.2
2017-07-11T08:38:20.323Z,30.2
2017-07-11T08:39:21.460Z,30.2
2017-07-11T08:40:23.241Z,30.1
2017-07-11T08:41:25.042Z,30.1
2017-07-11T08:42:27.178Z,30.2
2017-07-11T08:43:29.318Z,30.3
2017-07-11T08:44:31.460Z,30.2
2017-07-11T08:45:33.261Z,30.2
2017-07-11T08:46:34.736Z,30.2
2017-07-11T08:47:36.206Z,30.2
2017-07-11T08:48:38.007Z,30.3
2017-07-11T08:49:39.809Z,30.3
2017-07-11T08:50:41.612Z,30.3
2017-07-11T08:51:43.416Z,30.3
2017-07-11T08:52:45.558Z,30.2
2017-07-11T08:53:47.698Z,30.3
2017-07-11T08:54:49.836Z,30.3
2017-07-11T08:55:51.283Z,30.2
2017-07-11T08:56:53.422Z,30.3
2017-07-11T08:57:55.223Z,30.3
2017-07-11T08:58:56.721Z,30.3
2017-07-11T08:59:58.524Z,30.4
2017-07-11T09:01:00.322Z,30.4
2017-07-11T09:02:02.459Z,30.3
2017-07-11T09:03:03.571Z,30.2
2017-07-11T09:04:05.020Z,30.3
2017-07-11T09:05:07.158Z,30.3
2017-07-11T09:06:08.961Z,30.2
2017-07-11T09:07:10.403Z,30.3
2017-07-11T09:08:12.205Z,30.3
2017-07-11T09:09:14.343Z,30.4
2017-07-11T09:10:15.795Z,30.4
2017-07-11T09:11:17.597Z,30.4
2017-07-11T09:12:19.379Z,30.3
2017-07-11T09:13:21.514Z,30.3
2017-07-11T09:14:23.312Z,30.4
2017-07-11T09:15:25.445Z,30.3
2017-07-11T09:16:26.910Z,30.4
2017-07-11T09:17:27.690Z,30.4
2017-07-11T09:18:29.829Z,30.3
2017-07-11T09:19:31.279Z,30.4
2017-07-11T09:20:32.721Z,30.5
2017-07-11T09:21:33.831Z,30.4
2017-07-11T09:22:35.615Z,30.4
2017-07-11T09:23:37.087Z,30.4
2017-07-11T09:24:39.224Z,30.4
2017-07-11T09:25:40.699Z,30.4
2017-07-11T09:26:42.837Z,30.4
2017-07-11T09:27:44.655Z,30.5
2017-07-11T09:28:46.442Z,30.4
2017-07-11T09:29:48.300Z,30.4
2017-07-11T09:30:50.083Z,30.4
2017-07-11T09:31:52.221Z,30.4
2017-07-11T09:32:54.364Z,30.5
2017-07-11T09:33:56.501Z,30.5
2017-07-11T09:34:58.302Z,30.4
2017-07-11T09:36:00.436Z,30.5
2017-07-11T09:37:02.241Z,30.4
2017-07-11T09:38:04.045Z,30.4
2017-07-11T09:39:05.854Z,30.5
2017-07-11T09:40:07.991Z,30.5
2017-07-11T09:41:09.776Z,30.5
2017-07-11T09:42:10.934Z,30.5
2017-07-11T09:43:12.740Z,30.4
2017-07-11T09:44:14.529Z,30.4
2017-07-11T09:45:16.333Z,30.5
2017-07-11T09:46:18.134Z,30.4
2017-07-11T09:47:20.274Z,30.5
2017-07-11T09:48:21.746Z,30.5
2017-07-11T09:49:23.549Z,30.5
2017-07-11T09:50:25.704Z,30.5
2017-07-11T09:51:27.508Z,30.5
2017-07-11T09:52:29.311Z,30.5
2017-07-11T09:53:31.113Z,30.5
2017-07-11T09:54:33.255Z,30.4
2017-07-11T09:55:35.058Z,30.5
2017-07-11T09:56:36.861Z,30.5
2017-07-11T09:57:39.002Z,30.6
2017-07-11T09:58:40.812Z,30.5
2017-07-11T09:59:42.948Z,30.5
2017-07-11T10:00:44.753Z,30.7
2017-07-11T10:01:46.555Z,30.6
2017-07-11T10:02:48.694Z,30.6
2017-07-11T10:03:50.833Z,30.6
2017-07-11T10:04:52.980Z,30.6
2017-07-11T10:05:54.427Z,30.7
2017-07-11T10:06:55.879Z,30.6
2017-07-11T10:07:57.010Z,30.6
2017-07-11T10:08:58.144Z,30.6
2017-07-11T10:10:00.287Z,30.6
2017-07-11T10:11:01.735Z,30.6
2017-07-11T10:12:03.521Z,30.6
2017-07-11T10:13:05.333Z,30.6
2017-07-11T10:14:07.136Z,30.6
2017-07-11T10:15:09.271Z,30.6
2017-07-11T10:16:11.076Z,30.6
2017-07-11T10:17:12.882Z,30.6
2017-07-11T10:18:14.328Z,30.6
2017-07-11T10:19:15.776Z,30.6
2017-07-11T10:20:17.584Z,30.7
2017-07-11T10:21:19.489Z,30.7
2017-07-11T10:22:21.627Z,30.6
2017-07-11T10:23:23.071Z,30.7
2017-07-11T10:24:24.875Z,30.7
2017-07-11T10:25:26.320Z,30.7
2017-07-11T10:26:28.126Z,30.7
2017-07-11T10:27:29.928Z,30.7
2017-07-11T10:28:31.732Z,30.7
2017-07-11T10:29:33.534Z,30.7
2017-07-11T10:30:34.980Z,30.7
2017-07-11T10:31:37.119Z,30.7
2017-07-11T10:32:38.921Z,30.7
2017-07-11T10:33:40.726Z,30.7
2017-07-11T10:34:42.173Z,30.7
2017-07-11T10:35:43.309Z,30.7
2017-07-11T10:36:44.769Z,30.7
2017-07-11T10:37:46.568Z,30.8
2017-07-11T10:38:48.375Z,30.7
2017-07-11T10:39:49.845Z,30.8
2017-07-11T10:40:51.658Z,30.7
2017-07-11T10:41:53.793Z,30.7
2017-07-11T10:42:54.569Z,30.8
2017-07-11T10:43:56.039Z,30.7
2017-07-11T10:44:57.493Z,30.7
2017-07-11T10:45:59.270Z,30.6
2017-07-11T10:47:00.736Z,30.7
2017-07-11T10:48:02.535Z,30.7
2017-07-11T10:49:04.347Z,30.7
2017-07-11T10:50:06.143Z,30.7
2017-07-11T10:51:07.595Z,30.7
2017-07-11T10:52:09.737Z,30.7
2017-07-11T10:53:11.538Z,30.8
2017-07-11T10:54:13.674Z,30.8
2017-07-11T10:55:15.475Z,30.8
2017-07-11T10:56:17.255Z,30.8
2017-07-11T10:57:18.363Z,30.7
2017-07-11T10:58:20.169Z,30.7
2017-07-11T10:59:22.306Z,30.7
2017-07-11T11:00:23.753Z,30.8
2017-07-11T11:01:25.560Z,30.8
2017-07-11T11:02:27.696Z,30.8
2017-07-11T11:03:29.498Z,30.8
2017-07-11T11:04:31.303Z,30.7
2017-07-11T11:05:33.111Z,30.8
2017-07-11T11:06:34.556Z,30.8
2017-07-11T11:07:36.361Z,30.8
2017-07-11T11:08:37.811Z,30.9
2017-07-11T11:09:39.275Z,30.8
2017-07-11T11:10:40.738Z,30.8
2017-07-11T11:11:42.179Z,30.8
2017-07-11T11:12:43.959Z,30.9
2017-07-11T11:13:45.763Z,30.9
2017-07-11T11:14:47.900Z,30.9
2017-07-11T11:15:49.705Z,30.8
2017-07-11T11:16:51.606Z,30.8
2017-07-11T11:17:53.054Z,31
2017-07-11T11:18:54.505Z,30.9
2017-07-11T11:19:55.958Z,31
2017-07-11T11:20:57.406Z,31
2017-07-11T11:21:58.875Z,31
2017-07-11T11:23:00.326Z,31
2017-07-11T11:24:01.768Z,31
2017-07-11T11:25:02.877Z,31
2017-07-11T11:26:03.994Z,31
2017-07-11T11:27:05.794Z,31
2017-07-11T11:28:06.930Z,31
2017-07-11T11:29:09.069Z,31
2017-07-11T11:30:11.209Z,31.1
2017-07-11T11:31:13.349Z,31.1
2017-07-11T11:32:15.486Z,31
2017-07-11T11:33:16.930Z,31
2017-07-11T11:34:18.733Z,31
2017-07-11T11:35:20.875Z,31
2017-07-11T11:36:22.323Z,31
2017-07-11T11:37:24.174Z,31
2017-07-11T11:38:25.975Z,31
2017-07-11T11:39:27.780Z,31
2017-07-11T11:40:29.917Z,31
2017-07-11T11:41:30.696Z,31
2017-07-11T11:42:31.832Z,31.1
2017-07-11T11:43:33.281Z,31
2017-07-11T11:44:35.061Z,31.1
2017-07-11T11:45:36.867Z,31.1
2017-07-11T11:46:38.650Z,31.2
2017-07-11T11:47:40.464Z,31.1
2017-07-11T11:48:42.262Z,31.2
2017-07-11T11:49:44.069Z,31.1
2017-07-11T11:50:45.872Z,31.1
2017-07-11T11:51:46.982Z,31.1
2017-07-11T11:52:48.785Z,31
2017-07-11T11:53:50.922Z,31.2
2017-07-11T11:54:53.058Z,31.1
2017-07-11T11:55:54.530Z,31.1
2017-07-11T11:56:56.666Z,31.1
2017-07-11T11:57:58.112Z,31.1
2017-07-11T11:59:00.248Z,31.2
2017-07-11T12:00:02.051Z,31.3
2017-07-11T12:01:03.500Z,31.2
2017-07-11T12:02:05.302Z,31.1
2017-07-11T12:03:06.417Z,31.2
2017-07-11T12:04:08.555Z,31.2
2017-07-11T12:05:10.002Z,31.2
2017-07-11T12:06:11.806Z,31.1
2017-07-11T12:07:13.948Z,31.1
2017-07-11T12:08:15.750Z,31.2
2017-07-11T12:09:17.553Z,31.1
2017-07-11T12:10:19.691Z,31.2
2017-07-11T12:11:21.139Z,31.1
2017-07-11T12:12:22.948Z,31.1
2017-07-11T12:13:24.752Z,31.2
2017-07-11T12:14:26.194Z,31.2
2017-07-11T12:15:27.975Z,31.1
2017-07-11T12:16:29.778Z,31
2017-07-11T12:17:31.567Z,31.1
2017-07-11T12:18:33.009Z,31
2017-07-11T12:19:34.814Z,31.1
2017-07-11T12:20:36.618Z,31.1
2017-07-11T12:21:38.421Z,31
2017-07-11T12:22:40.564Z,31
2017-07-11T12:23:42.366Z,31.1
2017-07-11T12:24:43.501Z,31.2
2017-07-11T12:25:45.285Z,31
2017-07-11T12:26:47.089Z,31.1
2017-07-11T12:27:48.539Z,31.1
2017-07-11T12:28:49.982Z,31.1
2017-07-11T12:29:51.762Z,31.2
2017-07-11T12:30:53.905Z,31.1
2017-07-11T12:31:55.708Z,31.1
2017-07-11T12:32:57.491Z,31.2
2017-07-11T12:33:59.625Z,31.1
2017-07-11T12:35:00.736Z,31.2
2017-07-11T12:36:02.872Z,31.2
2017-07-11T12:37:04.318Z,31.2
2017-07-11T12:38:05.433Z,31.2
2017-07-11T12:39:07.234Z,31.2
2017-07-11T12:40:09.038Z,31.1
2017-07-11T12:41:10.177Z,31.2
2017-07-11T12:42:11.985Z,31.2
2017-07-11T12:43:13.792Z,31.1
2017-07-11T12:44:15.594Z,31.1
2017-07-11T12:45:16.707Z,31.2
2017-07-11T12:46:18.511Z,31.2
2017-07-11T12:47:20.648Z,31.2
2017-07-11T12:48:22.118Z,31.2
2017-07-11T12:49:23.591Z,31.2
2017-07-11T12:50:25.396Z,31.1
2017-07-11T12:51:26.838Z,31.2
2017-07-11T12:52:28.291Z,31.2
2017-07-11T12:53:29.397Z,31.2
2017-07-11T12:54:31.202Z,31.2
2017-07-11T12:55:32.676Z,31.2
2017-07-11T12:56:34.482Z,31.2
2017-07-11T12:57:36.617Z,31.2
2017-07-11T12:58:38.760Z,31.2
2017-07-11T12:59:40.538Z,31.2
2017-07-11T13:00:42.679Z,31.1
2017-07-11T13:01:44.484Z,31.2
2017-07-11T13:02:46.621Z,31.1
2017-07-11T13:03:48.590Z,31.2
2017-07-11T13:04:50.729Z,31.1
2017-07-11T13:05:52.532Z,31.2
2017-07-11T13:06:54.338Z,31.2
2017-07-11T13:07:56.145Z,31.1
2017-07-11T13:08:57.614Z,31.2
2017-07-11T13:09:58.749Z,31.1
2017-07-11T13:11:00.198Z,31.1
2017-07-11T13:12:02.336Z,31
2017-07-11T13:13:04.121Z,31.1
2017-07-11T13:14:05.570Z,31.1
2017-07-11T13:15:07.704Z,31
2017-07-11T13:16:08.837Z,31
2017-07-11T13:17:10.303Z,31
2017-07-11T13:18:11.749Z,31
2017-07-11T13:19:13.224Z,31
2017-07-11T13:20:15.028Z,31
2017-07-11T13:21:16.829Z,30.9
2017-07-11T13:22:17.963Z,30.9
2017-07-11T13:23:20.101Z,30.9
2017-07-11T13:24:21.212Z,30.9
2017-07-11T13:25:23.357Z,30.9
2017-07-11T13:26:25.490Z,30.9
2017-07-11T13:27:27.296Z,30.8
2017-07-11T13:28:28.073Z,30.9
2017-07-11T13:29:29.858Z,30.8
2017-07-11T13:30:31.325Z,30.8
2017-07-11T13:31:33.471Z,30.8
2017-07-11T13:32:35.250Z,30.9
2017-07-11T13:33:36.698Z,30.8
2017-07-11T13:34:38.502Z,30.8
2017-07-11T13:35:40.638Z,30.8
2017-07-11T13:36:42.441Z,30.8
2017-07-11T13:37:44.245Z,30.8
2017-07-11T13:38:46.380Z,30.8
2017-07-11T13:39:48.181Z,30.7
2017-07-11T13:40:49.961Z,30.8
2017-07-11T13:41:52.097Z,30.7
2017-07-11T13:42:53.876Z,30.8
2017-07-11T13:43:55.677Z,30.8
2017-07-11T13:44:57.145Z,30.7
2017-07-11T13:45:58.926Z,30.7
2017-07-11T13:47:01.062Z,30.7
2017-07-11T13:48:03.200Z,30.7
2017-07-11T13:49:04.665Z,30.8
2017-07-11T13:50:06.806Z,30.8
2017-07-11T13:51:08.275Z,30.8
2017-07-11T13:52:10.415Z,30.8
2017-07-11T13:53:11.527Z,30.8
2017-07-11T13:54:12.638Z,30.8